Time;durP1;ratioP1;P1;durP2;ratioP2;P2;SDS_P1;SDS_P2;PMS_P1;PMS_P2;Temp;Humidity;BMP_temperature;BMP_pressure;BME280_temperature;BME280_humidity;BME280_pressure;Samples;Min_cycle;Max_cycle;Signal;HPM_P1;HPM_P2
2023/07/21 00:00:21;;;;;;;;;;;21.20;57.90;;;;;;5112717;28;19919;-59
2023/07/21 00:02:47;;;;;;;;;;;21.20;57.90;;;;;;5094688;28;19923;-59
2023/07/21 00:05:13;;;;;;;;;;;21.10;57.80;;;;;;5093957;28;20392;-58
2023/07/21 00:07:39;;;;;;;;;;;21.20;57.90;;;;;;5094087;28;19924;-59
2023/07/21 00:10:07;;;;;;;;;;;21.20;57.90;;;;;;5114628;28;19920;-58
2023/07/21 00:12:40;;;;;;;;;;;21.20;57.90;;;;;;5098386;28;19926;-59
2023/07/21 00:15:06;;;;;;;;;;;21.10;58.60;;;;;;5116784;28;20157;-58
2023/07/21 00:17:34;;;;;;;;;;;21.10;57.90;;;;;;5098814;28;19949;-58
2023/07/21 00:20:09;;;;;;;;;;;21.10;57.90;;;;;;5098203;28;19939;-58
2023/07/21 00:22:35;;;;;;;;;;;21.10;57.90;;;;;;5098283;28;19966;-61
2023/07/21 00:25:01;;;;;;;;;;;21.10;57.90;;;;;;5098110;28;20363;-59
2023/07/21 00:27:27;;;;;;;;;;;21.10;57.90;;;;;;5116463;28;19924;-59
2023/07/21 00:29:52;;;;;;;;;;;21.10;57.90;;;;;;5098493;28;19926;-58
2023/07/21 00:32:19;;;;;;;;;;;21.10;57.90;;;;;;5098097;28;19927;-59
2023/07/21 00:34:46;;;;;;;;;;;21.10;57.90;;;;;;5098205;28;19969;-59
2023/07/21 00:37:12;;;;;;;;;;;21.10;57.90;;;;;;5098005;28;20014;-59
2023/07/21 00:39:39;;;;;;;;;;;21.10;57.90;;;;;;5098183;28;19945;-59
2023/07/21 00:42:04;;;;;;;;;;;21.00;57.90;;;;;;5116130;28;20306;-59
2023/07/21 00:44:30;;;;;;;;;;;21.10;58.00;;;;;;5116316;28;19920;-59
2023/07/21 00:46:55;;;;;;;;;;;21.00;57.90;;;;;;5096607;28;19924;-59
2023/07/21 00:49:21;;;;;;;;;;;21.00;58.00;;;;;;5098004;28;20112;-59
2023/07/21 00:51:47;;;;;;;;;;;21.00;58.00;;;;;;5097875;28;20010;-58
2023/07/21 00:54:12;;;;;;;;;;;21.00;58.00;;;;;;5097638;28;20382;-59
2023/07/21 00:56:38;;;;;;;;;;;21.00;58.00;;;;;;5115851;28;19926;-58
2023/07/21 00:59:03;;;;;;;;;;;21.00;58.00;;;;;;5097855;28;20057;-59
2023/07/21 01:01:29;;;;;;;;;;;21.00;58.00;;;;;;5097437;28;19919;-59
2023/07/21 01:03:56;;;;;;;;;;;21.00;58.00;;;;;;5097769;28;20309;-58
2023/07/21 01:06:27;;;;;;;;;;;21.00;58.00;;;;;;5097394;28;19968;-59
2023/07/21 01:08:56;;;;;;;;;;;21.00;58.00;;;;;;5115565;28;19927;-59
2023/07/21 01:11:21;;;;;;;;;;;21.00;58.00;;;;;;5097250;28;19924;-59
2023/07/21 01:13:47;;;;;;;;;;;20.90;58.00;;;;;;5097636;28;19947;-59
2023/07/21 01:16:13;;;;;;;;;;;21.00;58.00;;;;;;5115578;28;19920;-59
2023/07/21 01:18:39;;;;;;;;;;;21.00;58.00;;;;;;5097519;28;19920;-59
2023/07/21 01:21:05;;;;;;;;;;;20.90;58.00;;;;;;5096565;28;19920;-59
2023/07/21 01:23:43;;;;;;;;;;;20.90;58.00;;;;;;5097387;28;19977;-59
2023/07/21 01:26:10;;;;;;;;;;;20.90;58.00;;;;;;5097495;28;19941;-60
2023/07/21 01:28:37;;;;;;;;;;;20.90;58.10;;;;;;5115212;28;19964;-59
2023/07/21 01:31:02;;;;;;;;;;;20.90;58.00;;;;;;5097382;28;19924;-59
2023/07/21 01:33:28;;;;;;;;;;;20.90;58.00;;;;;;5096868;28;19927;-58
2023/07/21 01:35:55;;;;;;;;;;;20.90;58.00;;;;;;5115126;28;20286;-58
2023/07/21 01:38:22;;;;;;;;;;;20.90;58.00;;;;;;5115047;28;19926;-58
2023/07/21 01:40:48;;;;;;;;;;;20.90;58.00;;;;;;5097081;28;19930;-58
2023/07/21 01:43:14;;;;;;;;;;;20.90;58.00;;;;;;5096651;28;19962;-59
2023/07/21 01:45:41;;;;;;;;;;;20.90;58.00;;;;;;5114942;28;20458;-58
2023/07/21 01:48:07;;;;;;;;;;;20.90;58.10;;;;;;5096388;28;20324;-60
2023/07/21 01:50:33;;;;;;;;;;;20.80;58.00;;;;;;5096494;28;19920;-59
2023/07/21 01:53:00;;;;;;;;;;;20.90;58.10;;;;;;5114767;28;19919;-59
2023/07/21 01:55:28;;;;;;;;;;;20.90;58.10;;;;;;5114942;28;19920;-58
2023/07/21 01:57:57;;;;;;;;;;;20.90;58.10;;;;;;5096325;28;19924;-59
2023/07/21 02:00:25;;;;;;;;;;;20.80;58.10;;;;;;5114755;28;19919;-59
2023/07/21 02:02:52;;;;;;;;;;;20.80;58.10;;;;;;5096606;28;20375;-59
2023/07/21 02:05:18;;;;;;;;;;;20.80;58.10;;;;;;5096229;28;20627;-59
2023/07/21 02:07:44;;;;;;;;;;;20.80;58.10;;;;;;5096409;28;19935;-58
2023/07/21 02:10:10;;;;;;;;;;;20.80;58.10;;;;;;5114468;28;19919;-59
2023/07/21 02:12:35;;;;;;;;;;;20.80;58.20;;;;;;5114246;28;19988;-59
2023/07/21 02:15:01;;;;;;;;;;;20.80;58.10;;;;;;5096038;28;19923;-58
2023/07/21 02:17:26;;;;;;;;;;;20.80;58.10;;;;;;5095946;28;19969;-59
2023/07/21 02:19:52;;;;;;;;;;;20.80;58.10;;;;;;5114094;28;19919;-59
2023/07/21 02:22:17;;;;;;;;;;;20.80;58.20;;;;;;5096227;28;20342;-59
2023/07/21 02:24:43;;;;;;;;;;;20.80;58.20;;;;;;5114272;28;19976;-59
2023/07/21 02:27:09;;;;;;;;;;;20.80;58.10;;;;;;5113849;28;20010;-59
2023/07/21 02:29:34;;;;;;;;;;;20.80;58.20;;;;;;5114086;28;19920;-59
2023/07/21 02:32:00;;;;;;;;;;;20.80;58.20;;;;;;5113242;28;19920;-59
2023/07/21 02:34:25;;;;;;;;;;;20.70;58.80;;;;;;5095622;28;20455;-59
2023/07/21 02:36:53;;;;;;;;;;;20.80;58.20;;;;;;5095913;28;19920;-58
2023/07/21 02:39:21;;;;;;;;;;;20.80;58.20;;;;;;5113962;28;19927;-59
2023/07/21 02:41:47;;;;;;;;;;;20.80;58.20;;;;;;5095594;28;19919;-58
2023/07/21 02:44:12;;;;;;;;;;;20.80;58.20;;;;;;5095838;28;19988;-59
2023/07/21 02:46:38;;;;;;;;;;;20.70;58.10;;;;;;5095274;28;19927;-58
2023/07/21 02:49:03;;;;;;;;;;;20.70;58.10;;;;;;5113521;28;20143;-60
2023/07/21 02:51:29;;;;;;;;;;;20.70;58.20;;;;;;5095191;28;19919;-59
2023/07/21 02:53:54;;;;;;;;;;;20.70;58.20;;;;;;5113809;28;19919;-59
2023/07/21 02:56:19;;;;;;;;;;;20.70;58.20;;;;;;5095236;28;19920;-59
2023/07/21 02:58:45;;;;;;;;;;;20.70;58.20;;;;;;5095592;28;19955;-59
2023/07/21 03:01:12;;;;;;;;;;;20.70;58.20;;;;;;5095110;28;19973;-59
2023/07/21 03:03:39;;;;;;;;;;;20.70;58.20;;;;;;5095472;28;19999;-59
2023/07/21 03:06:05;;;;;;;;;;;20.70;58.10;;;;;;5095324;28;19919;-58
2023/07/21 03:08:31;;;;;;;;;;;20.70;58.20;;;;;;5095114;28;19930;-58
2023/07/21 03:10:57;;;;;;;;;;;20.70;58.20;;;;;;5113086;28;19919;-59
2023/07/21 03:13:24;;;;;;;;;;;20.60;58.10;;;;;;5095046;28;19924;-59
2023/07/21 03:15:50;;;;;;;;;;;20.70;58.20;;;;;;5113253;28;19920;-59
2023/07/21 03:18:15;;;;;;;;;;;20.70;58.20;;;;;;5113160;28;19920;-59
2023/07/21 03:20:41;;;;;;;;;;;20.70;58.20;;;;;;5095188;28;19920;-59
2023/07/21 03:23:07;;;;;;;;;;;20.70;58.20;;;;;;5094752;28;19919;-59
2023/07/21 03:25:33;;;;;;;;;;;20.70;58.30;;;;;;5095078;28;20287;-59
2023/07/21 03:27:59;;;;;;;;;;;20.70;58.20;;;;;;5094675;28;19923;-60
2023/07/21 03:30:24;;;;;;;;;;;20.60;58.10;;;;;;5095132;28;19927;-59
2023/07/21 03:32:50;;;;;;;;;;;20.60;58.20;;;;;;5112926;28;20014;-59
2023/07/21 03:35:16;;;;;;;;;;;20.70;58.20;;;;;;5112916;28;20371;-58
2023/07/21 03:37:42;;;;;;;;;;;20.60;58.20;;;;;;5094830;28;19919;-59
2023/07/21 03:40:08;;;;;;;;;;;20.60;58.20;;;;;;5113095;28;19986;-59
2023/07/21 03:42:35;;;;;;;;;;;20.60;58.20;;;;;;5112624;28;19924;-59
2023/07/21 03:45:04;;;;;;;;;;;20.60;58.20;;;;;;5094861;28;19968;-60
2023/07/21 03:47:30;;;;;;;;;;;20.60;58.20;;;;;;5112409;28;19923;-59
2023/07/21 03:49:56;;;;;;;;;;;20.60;58.20;;;;;;5094729;28;19920;-59
2023/07/21 03:52:21;;;;;;;;;;;20.60;58.20;;;;;;5094342;28;19920;-59
2023/07/21 03:54:47;;;;;;;;;;;20.60;58.20;;;;;;5094691;28;20014;-59
2023/07/21 03:57:12;;;;;;;;;;;20.60;58.20;;;;;;5112823;28;19920;-60
2023/07/21 03:59:41;;;;;;;;;;;20.60;58.20;;;;;;5094750;28;19969;-59
2023/07/21 04:02:07;;;;;;;;;;;20.60;58.20;;;;;;5094668;28;20015;-60
2023/07/21 04:04:33;;;;;;;;;;;20.60;58.30;;;;;;5112651;28;20409;-58
2023/07/21 04:07:05;;;;;;;;;;;20.60;58.20;;;;;;5094484;28;19919;-60
2023/07/21 04:09:31;;;;;;;;;;;20.60;58.30;;;;;;5093110;28;19920;-59
2023/07/21 04:11:56;;;;;;;;;;;20.50;58.30;;;;;;5093715;28;20259;-59
2023/07/21 04:14:22;;;;;;;;;;;20.50;58.30;;;;;;5093755;28;19962;-59
2023/07/21 04:16:47;;;;;;;;;;;20.50;58.30;;;;;;5094092;28;20382;-59
2023/07/21 04:19:13;;;;;;;;;;;20.50;58.30;;;;;;5094261;28;19920;-60
2023/07/21 04:21:38;;;;;;;;;;;20.50;58.30;;;;;;5094486;28;19942;-58
2023/07/21 04:24:04;;;;;;;;;;;20.50;58.30;;;;;;5112549;28;20132;-58
2023/07/21 04:26:29;;;;;;;;;;;20.50;58.30;;;;;;5094314;28;20573;-59
2023/07/21 04:28:55;;;;;;;;;;;20.50;58.30;;;;;;5094007;28;19923;-60
2023/07/21 04:31:22;;;;;;;;;;;20.50;58.30;;;;;;5112433;28;19920;-59
2023/07/21 04:33:48;;;;;;;;;;;20.50;58.20;;;;;;5094304;28;19984;-59
2023/07/21 04:36:14;;;;;;;;;;;20.50;58.30;;;;;;5094062;28;19930;-59
2023/07/21 04:38:39;;;;;;;;;;;20.50;58.30;;;;;;5112263;28;19927;-58
2023/07/21 04:41:05;;;;;;;;;;;20.50;58.30;;;;;;5094327;28;19920;-59
2023/07/21 04:43:30;;;;;;;;;;;20.50;58.30;;;;;;5093987;28;19974;-59
2023/07/21 04:45:56;;;;;;;;;;;20.50;58.30;;;;;;5112385;28;19926;-58
2023/07/21 04:48:21;;;;;;;;;;;20.50;58.30;;;;;;5111095;28;19931;-59
2023/07/21 04:50:51;;;;;;;;;;;20.50;58.30;;;;;;5093920;28;19924;-58
2023/07/21 04:53:17;;;;;;;;;;;20.40;58.20;;;;;;5094222;28;19920;-59
2023/07/21 04:55:42;;;;;;;;;;;20.50;58.30;;;;;;5095835;28;19927;-59
2023/07/21 04:58:08;;;;;;;;;;;20.40;58.20;;;;;;5097833;28;19920;-59
2023/07/21 05:00:34;;;;;;;;;;;20.50;58.30;;;;;;5115659;28;20370;-59
2023/07/21 05:03:00;;;;;;;;;;;20.50;58.30;;;;;;5097930;28;19970;-58
2023/07/21 05:05:27;;;;;;;;;;;20.40;58.20;;;;;;5115708;28;19965;-58
2023/07/21 05:07:52;;;;;;;;;;;20.40;58.20;;;;;;5114876;28;19967;-58
2023/07/21 05:10:18;;;;;;;;;;;20.40;58.20;;;;;;5096560;28;20343;-59
2023/07/21 05:12:43;;;;;;;;;;;20.40;58.20;;;;;;5115384;28;20014;-58
2023/07/21 05:15:09;;;;;;;;;;;20.40;58.20;;;;;;5115667;28;19919;-59
2023/07/21 05:17:34;;;;;;;;;;;20.40;58.20;;;;;;5097534;28;19989;-59
2023/07/21 05:20:00;;;;;;;;;;;20.40;58.20;;;;;;5115477;28;19920;-59
2023/07/21 05:22:26;;;;;;;;;;;20.40;58.20;;;;;;5097013;28;19938;-59
2023/07/21 05:24:52;;;;;;;;;;;20.40;58.20;;;;;;5115316;28;19927;-59
2023/07/21 05:27:17;;;;;;;;;;;20.50;58.30;;;;;;5097262;28;19919;-60
2023/07/21 05:29:43;;;;;;;;;;;20.40;58.20;;;;;;5097310;28;20016;-61
2023/07/21 05:32:08;;;;;;;;;;;20.40;58.20;;;;;;5115342;28;19973;-61
2023/07/21 05:34:34;;;;;;;;;;;20.40;58.20;;;;;;5097513;28;19989;-60
2023/07/21 05:37:00;;;;;;;;;;;20.40;58.20;;;;;;5096877;28;20006;-61
2023/07/21 05:39:27;;;;;;;;;;;20.40;58.20;;;;;;5096760;28;19963;-61
2023/07/21 05:41:54;;;;;;;;;;;20.40;58.20;;;;;;5097063;28;19920;-61
2023/07/21 05:44:19;;;;;;;;;;;20.40;58.20;;;;;;5096967;28;19920;-60
2023/07/21 05:46:46;;;;;;;;;;;20.40;58.20;;;;;;5114653;28;19926;-60
2023/07/21 05:49:11;;;;;;;;;;;20.40;58.30;;;;;;5096547;28;20302;-59
2023/07/21 05:51:37;;;;;;;;;;;20.40;58.30;;;;;;5096488;28;19920;-59
2023/07/21 05:54:03;;;;;;;;;;;20.40;58.30;;;;;;5096540;28;19919;-59
2023/07/21 05:56:29;;;;;;;;;;;20.40;58.20;;;;;;5114135;28;19964;-60
2023/07/21 05:58:54;;;;;;;;;;;20.40;58.20;;;;;;5094465;28;19920;-59
2023/07/21 06:01:20;;;;;;;;;;;20.40;58.20;;;;;;5093380;28;19919;-59
2023/07/21 06:03:46;;;;;;;;;;;20.40;58.30;;;;;;5093227;28;19927;-60
2023/07/21 06:06:11;;;;;;;;;;;20.40;58.30;;;;;;5112509;28;19920;-60
2023/07/21 06:08:37;;;;;;;;;;;20.40;58.30;;;;;;5094491;28;19924;-60
2023/07/21 06:11:02;;;;;;;;;;;20.40;58.40;;;;;;5094951;28;19919;-60
2023/07/21 06:13:29;;;;;;;;;;;20.50;58.40;;;;;;5112767;28;19972;-59
2023/07/21 06:15:55;;;;;;;;;;;20.40;58.40;;;;;;5107898;28;19923;-62
2023/07/21 06:18:21;;;;;;;;;;;20.40;58.40;;;;;;5092484;28;20014;-62
2023/07/21 06:20:47;;;;;;;;;;;20.40;58.70;;;;;;5092832;28;20275;-62
2023/07/21 06:23:12;;;;;;;;;;;20.50;58.80;;;;;;5087660;28;19977;-61
2023/07/21 06:25:38;;;;;;;;;;;20.50;58.80;;;;;;5091739;28;19924;-61
2023/07/21 06:28:04;;;;;;;;;;;20.50;58.90;;;;;;5092340;28;19987;-61
2023/07/21 06:30:30;;;;;;;;;;;20.50;59.00;;;;;;5093179;28;20235;-63
2023/07/21 06:32:55;;;;;;;;;;;20.50;59.70;;;;;;5089452;28;19924;-61
2023/07/21 06:35:21;;;;;;;;;;;20.50;59.20;;;;;;5103987;28;19919;-61
2023/07/21 06:37:46;;;;;;;;;;;20.50;59.20;;;;;;5081779;28;20294;-62
2023/07/21 06:40:12;;;;;;;;;;;20.40;59.10;;;;;;5078029;28;19924;-61
2023/07/21 06:42:39;;;;;;;;;;;20.50;59.30;;;;;;5094991;28;20352;-61
2023/07/21 06:45:05;;;;;;;;;;;20.50;59.40;;;;;;5093029;28;20033;-62
2023/07/21 06:47:30;;;;;;;;;;;20.50;59.30;;;;;;5108847;27;19927;-58
2023/07/21 06:49:56;;;;;;;;;;;20.50;59.50;;;;;;5080497;28;19976;-62
2023/07/21 06:52:21;;;;;;;;;;;20.50;59.70;;;;;;5077840;28;20011;-61
2023/07/21 06:54:47;;;;;;;;;;;20.50;59.80;;;;;;5073405;28;19928;-59
2023/07/21 06:57:12;;;;;;;;;;;20.50;60.00;;;;;;5097700;28;19924;-59
2023/07/21 06:59:38;;;;;;;;;;;20.50;60.10;;;;;;5076779;28;19923;-60
2023/07/21 07:02:04;;;;;;;;;;;20.50;60.30;;;;;;5077551;28;20004;-59
2023/07/21 07:04:29;;;;;;;;;;;20.60;60.40;;;;;;5108304;27;19943;-60
2023/07/21 07:06:55;;;;;;;;;;;20.60;60.30;;;;;;5094151;28;19933;-60
2023/07/21 07:09:23;;;;;;;;;;;20.60;60.20;;;;;;5093498;28;19936;-60
2023/07/21 07:11:49;;;;;;;;;;;20.60;60.30;;;;;;5076494;28;19978;-60
2023/07/21 07:14:15;;;;;;;;;;;20.60;60.40;;;;;;5097526;28;19996;-59
2023/07/21 07:16:40;;;;;;;;;;;20.60;60.20;;;;;;5075693;28;20450;-60
2023/07/21 07:19:06;;;;;;;;;;;20.60;60.00;;;;;;5075937;28;19935;-59
2023/07/21 07:21:32;;;;;;;;;;;20.60;60.10;;;;;;5076695;28;19931;-60
2023/07/21 07:23:58;;;;;;;;;;;20.70;60.20;;;;;;5091755;28;20514;-60
2023/07/21 07:26:23;;;;;;;;;;;20.70;60.20;;;;;;5079835;28;20147;-59
2023/07/21 07:28:49;;;;;;;;;;;20.60;60.30;;;;;;5096157;28;19991;-60
2023/07/21 07:31:14;;;;;;;;;;;20.70;60.40;;;;;;5093321;28;20038;-59
2023/07/21 07:33:40;;;;;;;;;;;20.70;60.10;;;;;;5077049;28;19959;-58
2023/07/21 07:36:06;;;;;;;;;;;20.70;59.80;;;;;;5073231;28;19920;-59
2023/07/21 07:38:32;;;;;;;;;;;20.70;59.50;;;;;;5089820;28;19959;-58
2023/07/21 07:41:03;;;;;;;;;;;20.70;58.90;;;;;;5071077;28;19927;-59
2023/07/21 07:43:29;;;;;;;;;;;20.70;59.10;;;;;;5073981;28;19953;-58
2023/07/21 07:45:56;;;;;;;;;;;20.70;59.20;;;;;;5075511;28;19932;-58
2023/07/21 07:48:22;;;;;;;;;;;20.70;59.70;;;;;;5109015;27;19928;-59
2023/07/21 07:50:47;;;;;;;;;;;20.70;58.80;;;;;;5089226;28;19931;-60
2023/07/21 07:53:13;;;;;;;;;;;20.70;58.90;;;;;;5108812;28;20504;-58
2023/07/21 07:55:39;;;;;;;;;;;20.70;58.80;;;;;;5104883;28;19968;-61
2023/07/21 07:58:05;;;;;;;;;;;20.70;59.10;;;;;;5106823;27;20314;-59
2023/07/21 08:00:32;;;;;;;;;;;20.70;59.00;;;;;;5090137;28;19924;-58
2023/07/21 08:02:57;;;;;;;;;;;20.80;59.30;;;;;;5068173;28;20030;-59
2023/07/21 08:05:23;;;;;;;;;;;20.70;59.20;;;;;;5073655;28;19985;-59
2023/07/21 08:07:48;;;;;;;;;;;20.80;59.20;;;;;;5085358;28;19927;-59
2023/07/21 08:10:14;;;;;;;;;;;20.70;59.20;;;;;;5069957;28;20437;-59
2023/07/21 08:12:40;;;;;;;;;;;20.80;59.30;;;;;;5072346;28;19921;-61
2023/07/21 08:15:05;;;;;;;;;;;20.80;59.60;;;;;;5089842;28;20358;-60
2023/07/21 08:17:31;;;;;;;;;;;20.80;59.70;;;;;;5092121;28;19928;-59
2023/07/21 08:19:56;;;;;;;;;;;20.80;59.60;;;;;;5091193;28;19969;-59
2023/07/21 08:22:22;;;;;;;;;;;20.80;59.60;;;;;;5089312;28;19936;-58
2023/07/21 08:24:47;;;;;;;;;;;20.80;59.50;;;;;;5105369;28;20363;-59
2023/07/21 08:27:13;;;;;;;;;;;20.80;59.00;;;;;;5093324;28;19928;-60
2023/07/21 08:29:38;;;;;;;;;;;20.80;58.70;;;;;;5078415;28;19924;-58
2023/07/21 08:32:04;;;;;;;;;;;20.80;59.20;;;;;;5096693;28;20399;-58
2023/07/21 08:34:29;;;;;;;;;;;20.80;58.90;;;;;;5081281;28;20017;-58
2023/07/21 08:36:55;;;;;;;;;;;20.90;58.70;;;;;;5079895;28;20272;-57
2023/07/21 08:39:21;;;;;;;;;;;20.80;58.50;;;;;;5076635;28;20018;-59
2023/07/21 08:41:48;;;;;;;;;;;20.90;58.50;;;;;;5077439;28;19928;-58
2023/07/21 08:44:15;;;;;;;;;;;20.90;58.50;;;;;;5099396;28;19977;-58
2023/07/21 08:46:40;;;;;;;;;;;20.90;58.40;;;;;;5119157;27;19955;-58
2023/07/21 08:49:07;;;;;;;;;;;20.90;58.40;;;;;;5113177;27;19982;-59
2023/07/21 08:51:32;;;;;;;;;;;20.90;58.50;;;;;;5099343;28;19928;-59
2023/07/21 08:53:58;;;;;;;;;;;20.90;58.50;;;;;;5082029;28;19924;-59
2023/07/21 08:56:24;;;;;;;;;;;20.90;58.40;;;;;;5083729;28;19931;-59
2023/07/21 08:58:49;;;;;;;;;;;20.90;58.40;;;;;;5082924;28;19919;-59
2023/07/21 09:01:15;;;;;;;;;;;21.00;58.40;;;;;;5081456;28;20456;-59
2023/07/21 09:03:45;;;;;;;;;;;21.00;58.30;;;;;;5114619;27;19920;-59
2023/07/21 09:06:11;;;;;;;;;;;21.00;58.10;;;;;;5080598;28;19923;-60
2023/07/21 09:08:37;;;;;;;;;;;21.00;58.20;;;;;;5097298;28;19931;-59
2023/07/21 09:11:03;;;;;;;;;;;21.10;59.10;;;;;;5092097;28;19950;-59
2023/07/21 09:13:30;;;;;;;;;;;21.20;58.30;;;;;;5080663;28;20500;-60
2023/07/21 09:15:57;;;;;;;;;;;21.20;58.10;;;;;;5075633;28;20500;-58
2023/07/21 09:18:24;;;;;;;;;;;21.20;58.00;;;;;;5076281;28;19927;-59
2023/07/21 09:20:49;;;;;;;;;;;21.30;58.00;;;;;;5079103;28;19934;-61
2023/07/21 09:23:17;;;;;;;;;;;21.30;57.80;;;;;;5095984;28;19920;-61
2023/07/21 09:25:59;;;;;;;;;;;21.40;58.00;;;;;;5079934;28;19956;-60
2023/07/21 09:28:41;;;;;;;;;;;21.40;57.90;;;;;;5079907;28;19946;-61
2023/07/21 09:31:07;;;;;;;;;;;21.40;57.80;;;;;;5080164;28;20448;-61
2023/07/21 09:33:38;;;;;;;;;;;21.40;57.50;;;;;;5100162;28;19920;-59
2023/07/21 09:36:04;;;;;;;;;;;21.50;57.30;;;;;;5080226;28;19931;-59
2023/07/21 09:38:30;;;;;;;;;;;21.50;57.10;;;;;;5076254;28;19964;-59
2023/07/21 09:41:04;;;;;;;;;;;21.50;57.10;;;;;;5098729;28;19990;-59
2023/07/21 09:43:30;;;;;;;;;;;21.50;56.70;;;;;;5079096;28;19928;-59
2023/07/21 09:45:58;;;;;;;;;;;21.50;56.50;;;;;;5072656;28;20006;-63
2023/07/21 09:48:25;;;;;;;;;;;21.60;56.30;;;;;;5094964;28;19970;-60
2023/07/21 09:50:51;;;;;;;;;;;21.50;56.40;;;;;;5078685;28;19955;-63
2023/07/21 09:53:20;;;;;;;;;;;21.60;56.10;;;;;;5083097;28;19962;-62
2023/07/21 09:55:47;;;;;;;;;;;21.60;56.20;;;;;;5077758;28;19924;-60
2023/07/21 09:58:14;;;;;;;;;;;21.60;56.30;;;;;;5071935;28;20003;-66
2023/07/21 10:00:40;;;;;;;;;;;21.60;56.10;;;;;;5075276;28;19966;-62
2023/07/21 10:03:07;;;;;;;;;;;21.60;56.10;;;;;;5076730;28;19920;-62
2023/07/21 10:05:34;;;;;;;;;;;21.60;56.10;;;;;;5092032;28;19920;-62
2023/07/21 10:08:01;;;;;;;;;;;21.60;55.90;;;;;;5066428;28;20284;-62
2023/07/21 10:10:27;;;;;;;;;;;21.60;55.70;;;;;;5098255;28;19930;-64
2023/07/21 10:12:53;;;;;;;;;;;21.60;55.60;;;;;;5076580;28;19924;-62
2023/07/21 10:18:01;;;;;;;;;;;21.60;55.30;;;;;;5090991;27;20301;-61
2023/07/21 10:20:46;;;;;;;;;;;21.60;55.20;;;;;;5078201;28;20028;-60
2023/07/21 10:23:13;;;;;;;;;;;21.60;55.20;;;;;;5060090;28;19920;-60
2023/07/21 10:25:56;;;;;;;;;;;21.60;55.20;;;;;;5055735;28;20357;-60
2023/07/21 10:28:24;;;;;;;;;;;21.60;55.20;;;;;;5059539;28;20384;-61
2023/07/21 10:30:50;;;;;;;;;;;21.60;55.50;;;;;;5072787;28;20019;-61
2023/07/21 10:33:20;;;;;;;;;;;21.60;55.50;;;;;;5090256;28;20371;-61
2023/07/21 10:35:46;;;;;;;;;;;21.60;55.30;;;;;;5055955;28;20591;-63
2023/07/21 10:40:53;;;;;;;;;;;21.60;55.30;;;;;;5096194;27;19923;-61
2023/07/21 10:43:19;;;;;;;;;;;21.60;55.20;;;;;;5087168;28;20291;-61
2023/07/21 10:45:49;;;;;;;;;;;21.60;55.20;;;;;;5090397;28;20469;-61
2023/07/21 10:48:16;;;;;;;;;;;21.60;55.20;;;;;;5092051;28;19925;-62
2023/07/21 10:50:47;;;;;;;;;;;21.60;55.10;;;;;;5089811;28;20430;-61
2023/07/21 10:53:12;;;;;;;;;;;21.60;55.10;;;;;;5088159;28;19981;-61
2023/07/21 10:55:38;;;;;;;;;;;21.60;55.10;;;;;;5088109;28;20149;-61
2023/07/21 10:58:04;;;;;;;;;;;21.60;55.20;;;;;;5091358;28;20265;-61
2023/07/21 11:00:29;;;;;;;;;;;21.60;55.10;;;;;;5087881;28;19935;-62
2023/07/21 11:02:56;;;;;;;;;;;21.60;55.20;;;;;;5088607;28;20362;-61
2023/07/21 11:05:22;;;;;;;;;;;21.60;55.20;;;;;;5084081;28;20039;-61
2023/07/21 11:07:48;;;;;;;;;;;21.70;55.20;;;;;;5086035;28;19999;-61
2023/07/21 11:10:14;;;;;;;;;;;21.60;55.20;;;;;;5090140;28;19924;-62
2023/07/21 11:12:40;;;;;;;;;;;21.70;55.30;;;;;;5089609;28;19926;-61
2023/07/21 11:15:08;;;;;;;;;;;21.60;55.30;;;;;;5092394;28;20006;-61
2023/07/21 11:17:34;;;;;;;;;;;21.70;55.40;;;;;;5089246;28;19921;-62
2023/07/21 11:20:10;;;;;;;;;;;21.70;55.40;;;;;;5092413;28;19977;-61
2023/07/21 11:22:36;;;;;;;;;;;21.70;55.40;;;;;;5074066;28;20299;-61
2023/07/21 11:25:10;;;;;;;;;;;21.80;55.50;;;;;;5089588;28;19920;-61
2023/07/21 11:27:41;;;;;;;;;;;21.70;55.30;;;;;;5089301;28;20020;-61
2023/07/21 11:30:07;;;;;;;;;;;21.70;55.40;;;;;;5089736;28;20520;-61
2023/07/21 11:32:34;;;;;;;;;;;21.70;55.40;;;;;;5093932;28;19921;-62
2023/07/21 11:35:02;;;;;;;;;;;21.70;55.60;;;;;;5089171;28;20411;-62
2023/07/21 11:37:44;;;;;;;;;;;21.70;55.50;;;;;;5092256;28;19927;-60
2023/07/21 11:40:15;;;;;;;;;;;21.70;55.30;;;;;;5105683;28;20019;-62
2023/07/21 11:42:41;;;;;;;;;;;21.80;55.50;;;;;;5114417;28;19920;-62
2023/07/21 11:45:28;;;;;;;;;;;21.80;55.40;;;;;;5095851;28;19924;-62
2023/07/21 11:47:53;;;;;;;;;;;21.80;55.40;;;;;;5111356;28;19920;-62
2023/07/21 11:50:19;;;;;;;;;;;21.80;55.30;;;;;;5086865;28;20004;-63
2023/07/21 11:52:47;;;;;;;;;;;21.80;55.30;;;;;;5074020;28;20018;-57
2023/07/21 11:55:12;;;;;;;;;;;21.80;55.20;;;;;;5073400;28;19920;-57
2023/07/21 11:57:38;;;;;;;;;;;21.80;55.10;;;;;;5099152;28;20230;-58
2023/07/21 12:00:11;;;;;;;;;;;21.80;55.00;;;;;;5070368;28;19924;-60
2023/07/21 12:02:37;;;;;;;;;;;21.80;55.00;;;;;;5070429;28;19974;-60
2023/07/21 12:05:03;;;;;;;;;;;21.80;55.00;;;;;;5089344;28;19920;-60
2023/07/21 12:07:29;;;;;;;;;;;21.80;55.00;;;;;;5074539;28;19955;-59
2023/07/21 12:09:54;;;;;;;;;;;21.80;55.00;;;;;;5070857;28;19963;-59
2023/07/21 12:12:20;;;;;;;;;;;21.80;55.00;;;;;;5106879;28;20441;-59
2023/07/21 12:14:45;;;;;;;;;;;21.80;54.90;;;;;;5088357;28;19924;-60
2023/07/21 12:17:14;;;;;;;;;;;21.90;54.90;;;;;;5063669;28;20291;-59
2023/07/21 12:19:40;;;;;;;;;;;21.80;54.80;;;;;;5074172;28;19975;-59
2023/07/21 12:22:06;;;;;;;;;;;21.90;54.70;;;;;;5074187;28;19967;-62
2023/07/21 12:24:32;;;;;;;;;;;21.90;54.50;;;;;;5074705;28;19920;-60
2023/07/21 12:26:57;;;;;;;;;;;21.90;54.70;;;;;;5086809;28;20027;-59
2023/07/21 12:29:23;;;;;;;;;;;21.90;54.50;;;;;;5063693;28;19920;-60
2023/07/21 12:31:49;;;;;;;;;;;21.90;54.40;;;;;;5070288;28;20253;-59
2023/07/21 12:34:15;;;;;;;;;;;21.90;54.30;;;;;;5064901;28;19931;-60
2023/07/21 12:36:40;;;;;;;;;;;21.90;54.20;;;;;;5088951;28;20019;-60
2023/07/21 12:39:09;;;;;;;;;;;21.90;54.20;;;;;;5062749;28;20019;-60
2023/07/21 12:41:36;;;;;;;;;;;21.90;54.10;;;;;;5103792;28;19931;-61
2023/07/21 12:44:02;;;;;;;;;;;21.90;54.10;;;;;;5091412;28;19920;-60
2023/07/21 12:46:27;;;;;;;;;;;21.90;53.90;;;;;;5091600;28;19943;-60
2023/07/21 12:48:53;;;;;;;;;;;21.90;53.90;;;;;;5091587;28;20390;-60
2023/07/21 12:51:18;;;;;;;;;;;21.90;53.80;;;;;;5073147;28;19966;-61
2023/07/21 12:53:44;;;;;;;;;;;22.00;53.60;;;;;;5073293;28;20316;-61
2023/07/21 12:56:09;;;;;;;;;;;22.00;53.60;;;;;;5074701;28;19973;-60
2023/07/21 12:58:35;;;;;;;;;;;22.00;53.70;;;;;;5070030;28;19920;-60
2023/07/21 13:01:00;;;;;;;;;;;22.00;53.70;;;;;;5089152;28;19931;-59
2023/07/21 13:03:26;;;;;;;;;;;21.90;53.50;;;;;;5090209;28;19998;-60
2023/07/21 13:05:51;;;;;;;;;;;22.00;53.60;;;;;;5081968;28;19980;-60
2023/07/21 13:08:17;;;;;;;;;;;22.00;53.70;;;;;;5091282;28;19927;-60
2023/07/21 13:10:42;;;;;;;;;;;22.00;53.60;;;;;;5067785;28;20058;-61
2023/07/21 13:13:08;;;;;;;;;;;22.00;53.40;;;;;;5073015;28;19924;-61
2023/07/21 13:15:33;;;;;;;;;;;22.00;53.60;;;;;;5073291;28;19927;-61
2023/07/21 13:17:59;;;;;;;;;;;22.00;53.70;;;;;;5073445;28;20398;-65
2023/07/21 13:20:24;;;;;;;;;;;22.10;53.50;;;;;;5073455;28;19928;-61
2023/07/21 13:22:50;;;;;;;;;;;22.10;53.60;;;;;;5073408;28;20607;-61
2023/07/21 13:25:16;;;;;;;;;;;22.10;54.10;;;;;;5091718;28;19920;-62
2023/07/21 13:27:41;;;;;;;;;;;22.10;54.00;;;;;;5089890;28;19928;-62
2023/07/21 13:30:07;;;;;;;;;;;22.10;54.00;;;;;;5095297;28;19973;-62
2023/07/21 13:32:33;;;;;;;;;;;22.10;53.80;;;;;;5089479;28;20008;-62
2023/07/21 13:34:58;;;;;;;;;;;22.10;54.20;;;;;;5071512;28;20056;-63
2023/07/21 13:37:24;;;;;;;;;;;22.10;54.30;;;;;;5089865;28;19977;-64
2023/07/21 13:39:50;;;;;;;;;;;22.10;54.20;;;;;;5105722;28;19924;-62
2023/07/21 13:42:15;;;;;;;;;;;22.10;54.20;;;;;;5089073;28;19974;-62
2023/07/21 13:44:41;;;;;;;;;;;22.10;54.00;;;;;;5072398;28;21159;-62
2023/07/21 13:47:06;;;;;;;;;;;22.10;53.80;;;;;;5069024;28;20754;-64
2023/07/21 13:49:32;;;;;;;;;;;22.10;53.60;;;;;;5070210;28;19920;-64
2023/07/21 13:51:58;;;;;;;;;;;22.10;53.80;;;;;;5087221;28;19923;-63
2023/07/21 13:54:24;;;;;;;;;;;22.10;53.80;;;;;;5086953;28;19924;-62
2023/07/21 13:56:50;;;;;;;;;;;22.10;53.90;;;;;;5104265;28;20367;-62
2023/07/21 13:59:16;;;;;;;;;;;22.10;54.00;;;;;;5100081;28;19928;-62
2023/07/21 14:01:41;;;;;;;;;;;22.10;54.10;;;;;;5071341;28;20287;-63
2023/07/21 14:04:07;;;;;;;;;;;22.10;54.10;;;;;;5067146;28;20407;-61
2023/07/21 14:06:32;;;;;;;;;;;22.10;54.10;;;;;;5088491;28;19920;-60
2023/07/21 14:08:58;;;;;;;;;;;22.10;54.30;;;;;;5104036;28;21709;-60
2023/07/21 14:11:23;;;;;;;;;;;22.10;54.30;;;;;;5046657;28;19931;-60
2023/07/21 14:13:49;;;;;;;;;;;22.10;54.40;;;;;;5071739;28;20303;-59
2023/07/21 14:16:14;;;;;;;;;;;22.10;54.30;;;;;;5088544;28;19977;-60